Time;durP1;ratioP1;P1;durP2;ratioP2;P2;SDS_P1;SDS_P2;PMS_P1;PMS_P2;Temp;Humidity;BMP_temperature;BMP_pressure;BME280_temperature;BME280_humidity;BME280_pressure;Samples;Min_cycle;Max_cycle;Signal;HPM_P1;HPM_P2
2023/10/30 00:00:55;;;;;;;1.42;1.33;;;;;;;11.19;nan;60731.31;4996523;28;20195;-73
2023/10/30 00:03:20;;;;;;;2.20;2.00;;;;;;;10.94;nan;60560.16;4996369;28;20173;-73
2023/10/30 00:05:45;;;;;;;1.60;1.50;;;;;;;11.05;nan;60792.81;4997041;28;20542;-74
2023/10/30 00:08:11;;;;;;;1.17;1.17;;;;;;;10.85;nan;60534.75;4996538;28;20223;-74
2023/10/30 00:10:36;;;;;;;1.70;1.60;;;;;;;11.06;nan;60512.28;4996660;28;20220;-74
2023/10/30 00:13:02;;;;;;;3.22;1.98;;;;;;;11.04;nan;60515.72;4996758;28;20179;-73
2023/10/30 00:15:27;;;;;;;1.63;1.52;;;;;;;10.93;nan;60497.72;4996646;28;20161;-73
2023/10/30 00:17:53;;;;;;;3.58;2.45;;;;;;;10.91;nan;60429.59;4996089;28;20169;-72
2023/10/30 00:20:18;;;;;;;1.30;1.20;;;;;;;10.97;nan;60241.59;4996399;28;20224;-74
2023/10/30 00:22:45;;;;;;;2.83;2.58;;;;;;;10.96;nan;60179.16;4995886;28;20259;-74
2023/10/30 00:25:10;;;;;;;1.20;1.20;;;;;;;10.86;nan;60111.81;4995878;28;20573;-72
2023/10/30 00:27:36;;;;;;;1.50;1.40;;;;;;;10.80;nan;60115.91;4995531;28;20172;-73
2023/10/30 00:30:01;;;;;;;1.40;1.30;;;;;;;10.64;nan;60011.84;5011110;28;20225;-74
2023/10/30 00:32:27;;;;;;;1.70;1.60;;;;;;;10.80;nan;60029.06;4995607;28;20181;-72
2023/10/30 00:34:52;;;;;;;1.40;1.30;;;;;;;10.62;nan;59883.97;4996398;28;20184;-74
2023/10/30 00:37:17;;;;;;;1.98;1.85;;;;;;;10.63;nan;59824.31;4996346;28;20675;-72
2023/10/30 00:39:43;;;;;;;1.52;1.42;;;;;;;10.58;nan;59833.56;4996680;28;20172;-73
2023/10/30 00:42:09;;;;;;;2.13;1.40;;;;;;;10.60;nan;59853.66;4995947;28;20176;-72
2023/10/30 00:44:34;;;;;;;3.47;1.30;;;;;;;10.71;nan;59824.44;4995876;28;20251;-74
2023/10/30 00:46:59;;;;;;;1.20;1.20;;;;;;;10.50;nan;59640.91;4994268;28;20636;-72
2023/10/30 00:49:25;;;;;;;1.92;1.65;;;;;;;10.39;nan;59631.31;5011429;28;20180;-72
2023/10/30 00:51:50;;;;;;;1.00;1.00;;;;;;;10.63;nan;59535.81;4995885;28;20208;-74
2023/10/30 00:54:16;;;;;;;2.08;1.90;;;;;;;10.54;nan;59513.13;4995869;28;20616;-73
2023/10/30 00:56:41;;;;;;;2.35;2.15;;;;;;;10.39;nan;59529.78;4994315;28;20231;-74
2023/10/30 00:59:07;;;;;;;1.27;1.25;;;;;;;10.55;nan;59646.97;5010572;28;20676;-72
2023/10/30 01:01:32;;;;;;;1.30;1.20;;;;;;;10.34;nan;59570.19;5010697;28;20652;-74
2023/10/30 01:03:58;;;;;;;1.63;1.25;;;;;;;10.61;nan;59594.91;5019046;28;20191;-73
2023/10/30 01:06:23;;;;;;;1.35;1.25;;;;;;;10.38;nan;59558.75;5012848;28;20195;-74
2023/10/30 01:08:49;;;;;;;1.70;1.60;;;;;;;10.38;nan;59517.91;5014659;28;20199;-73
2023/10/30 01:11:14;;;;;;;1.40;1.30;;;;;;;10.38;nan;59494.94;5014877;28;20211;-74
2023/10/30 01:13:40;;;;;;;1.55;1.45;;;;;;;10.51;nan;59412.84;5014918;28;20230;-73
2023/10/30 01:16:06;;;;;;;1.80;1.70;;;;;;;10.30;nan;59198.34;5014330;28;20214;-74
2023/10/30 01:18:32;;;;;;;1.42;1.33;;;;;;;10.48;nan;59077.75;5012801;28;20172;-74
2023/10/30 01:20:57;;;;;;;1.13;1.13;;;;;;;10.47;nan;59102.19;5014714;28;20234;-73
2023/10/30 01:23:22;;;;;;;4.13;2.17;;;;;;;10.23;nan;59021.75;5014834;28;20168;-73
2023/10/30 01:25:48;;;;;;;1.42;1.20;;;;;;;10.39;nan;58970.94;5014376;28;20621;-72
2023/10/30 01:28:14;;;;;;;1.33;1.27;;;;;;;10.48;nan;59241.09;5014193;28;20176;-74
2023/10/30 01:30:40;;;;;;;1.35;1.25;;;;;;;9.92;nan;59240.75;5013565;28;20263;-74
2023/10/30 01:33:05;;;;;;;2.90;2.42;;;;;;;10.32;nan;59222.97;5014371;28;20168;-73
2023/10/30 01:35:31;;;;;;;1.25;1.23;;;;;;;10.45;nan;59130.06;5013135;28;20230;-72
2023/10/30 01:37:57;;;;;;;2.05;1.85;;;;;;;10.47;nan;59104.72;5012463;28;20180;-72
2023/10/30 01:40:22;;;;;;;1.05;1.05;;;;;;;10.43;nan;59033.44;5012457;28;20251;-73
2023/10/30 01:42:47;;;;;;;1.10;1.10;;;;;;;10.29;nan;59085.00;5012251;28;20572;-72
2023/10/30 01:45:13;;;;;;;1.30;1.23;;;;;;;10.33;nan;59234.81;5012264;28;20202;-74
2023/10/30 01:47:39;;;;;;;1.27;1.27;;;;;;;10.19;nan;59288.88;5011990;28;20176;-72
2023/10/30 01:50:07;;;;;;;1.50;1.40;;;;;;;10.38;nan;59127.50;5012515;28;20182;-72
2023/10/30 01:52:34;;;;;;;1.30;1.20;;;;;;;10.13;nan;59154.69;5014226;28;20658;-73
2023/10/30 01:54:59;;;;;;;1.70;1.60;;;;;;;10.05;nan;59087.28;5014261;28;20203;-72
2023/10/30 01:57:27;;;;;;;1.75;1.33;;;;;;;10.21;nan;58953.25;5012815;28;20670;-73
2023/10/30 01:59:52;;;;;;;1.50;1.40;;;;;;;10.15;nan;58746.28;5029071;28;20176;-74
2023/10/30 02:02:19;;;;;;;1.10;1.10;;;;;;;10.07;nan;58712.03;5014191;28;20183;-71
2023/10/30 02:04:45;;;;;;;1.40;1.30;;;;;;;10.21;nan;58775.25;5014190;28;20179;-73
2023/10/30 02:07:11;;;;;;;1.17;1.08;;;;;;;10.28;nan;58813.47;5014420;28;20164;-74
2023/10/30 02:09:37;;;;;;;1.35;1.25;;;;;;;10.09;nan;58912.59;5014170;28;20176;-74
2023/10/30 02:12:03;;;;;;;1.50;1.40;;;;;;;10.32;nan;58955.63;5013297;28;20210;-74
2023/10/30 02:14:28;;;;;;;0.93;0.93;;;;;;;10.11;nan;59019.91;5012417;28;20184;-74
2023/10/30 02:16:53;;;;;;;3.33;2.08;;;;;;;10.17;nan;59230.53;5013525;28;20172;-74
2023/10/30 02:19:22;;;;;;;1.27;1.20;;;;;;;10.17;nan;59383.06;5013657;28;20578;-74
2023/10/30 02:21:48;;;;;;;1.42;1.33;;;;;;;10.36;nan;59556.53;5013572;28;20180;-74
2023/10/30 02:24:15;;;;;;;1.40;1.27;;;;;;;10.51;nan;59665.53;5013729;28;20630;-73
2023/10/30 02:26:40;;;;;;;1.20;1.20;;;;;;;10.56;nan;59731.78;5013934;28;20251;-74
2023/10/30 02:29:05;;;;;;;5.18;1.48;;;;;;;10.37;nan;59828.16;5013130;28;20739;-73
2023/10/30 02:31:32;;;;;;;1.40;1.30;;;;;;;10.60;nan;59859.31;5015151;28;20686;-74
2023/10/30 02:33:59;;;;;;;1.35;1.25;;;;;;;10.70;nan;59900.50;5016784;28;20183;-72
2023/10/30 02:36:25;;;;;;;0.95;0.95;;;;;;;10.70;nan;59849.41;5016716;28;20168;-71
2023/10/30 02:38:52;;;;;;;1.77;1.33;;;;;;;10.73;nan;59849.66;5029241;28;20254;-73
2023/10/30 02:41:18;;;;;;;1.10;1.10;;;;;;;10.58;nan;59802.94;5017129;28;20176;-72
2023/10/30 02:43:43;;;;;;;1.38;1.30;;;;;;;10.62;nan;59649.63;5013397;28;20176;-72
2023/10/30 02:46:09;;;;;;;1.23;1.20;;;;;;;10.59;nan;59686.59;5013670;28;20161;-71
2023/10/30 02:48:34;;;;;;;1.70;1.60;;;;;;;10.42;nan;59696.41;5014061;28;20168;-72
2023/10/30 02:50:59;;;;;;;1.00;1.00;;;;;;;10.56;nan;59803.25;5014110;28;20334;-72
2023/10/30 02:53:25;;;;;;;1.10;1.10;;;;;;;10.65;nan;60017.50;5014474;28;20646;-72
2023/10/30 02:55:50;;;;;;;1.38;1.27;;;;;;;10.64;nan;59942.34;5014902;28;20172;-73
2023/10/30 02:58:16;;;;;;;1.38;1.27;;;;;;;10.53;nan;59907.72;5013774;28;20691;-73
2023/10/30 03:00:41;;;;;;;1.10;1.05;;;;;;;10.26;nan;59801.22;5013235;28;20168;-72
2023/10/30 03:03:06;;;;;;;1.00;1.00;;;;;;;10.19;nan;59808.75;5013104;28;20183;-74
2023/10/30 03:05:32;;;;;;;1.17;1.08;;;;;;;10.31;nan;59607.69;5012569;28;20250;-72
2023/10/30 03:07:58;;;;;;;1.45;1.35;;;;;;;10.35;nan;59420.75;5013108;28;20183;-73
2023/10/30 03:10:23;;;;;;;1.20;1.20;;;;;;;10.35;nan;59584.06;5012777;28;20182;-74
2023/10/30 03:12:49;;;;;;;1.10;1.10;;;;;;;10.17;nan;59500.41;5012804;28;20602;-73
2023/10/30 03:15:14;;;;;;;1.63;1.35;;;;;;;10.23;nan;59465.63;5013142;28;20176;-72
2023/10/30 03:17:39;;;;;;;1.30;1.20;;;;;;;10.17;nan;59176.44;5012466;28;20278;-73
2023/10/30 03:20:08;;;;;;;1.63;1.52;;;;;;;10.22;nan;59229.84;5012927;28;20259;-72
2023/10/30 03:22:34;;;;;;;1.40;1.30;;;;;;;10.21;nan;59331.34;5011782;28;20258;-74
2023/10/30 03:25:00;;;;;;;1.63;1.43;;;;;;;10.25;nan;59277.06;4992949;28;20278;-72
2023/10/30 03:27:25;;;;;;;1.73;1.47;;;;;;;10.35;nan;59441.16;4992438;28;20213;-73
2023/10/30 03:29:51;;;;;;;1.15;1.08;;;;;;;10.40;nan;59489.50;4993442;28;20181;-72
2023/10/30 03:32:16;;;;;;;1.30;1.20;;;;;;;10.21;nan;59552.72;4992855;28;20211;-71
2023/10/30 03:34:43;;;;;;;1.30;1.20;;;;;;;10.39;nan;59641.50;4992512;28;20665;-72
2023/10/30 03:37:08;;;;;;;1.60;1.50;;;;;;;9.93;nan;59723.81;4992726;28;20183;-73
2023/10/30 03:39:34;;;;;;;1.37;1.27;;;;;;;10.26;nan;59701.16;4991469;28;20528;-73
2023/10/30 03:42:00;;;;;;;1.02;1.02;;;;;;;10.34;nan;59662.06;4992611;28;20177;-72
2023/10/30 03:44:26;;;;;;;1.13;1.13;;;;;;;10.32;nan;59547.56;4991587;28;20181;-73
2023/10/30 03:46:52;;;;;;;1.40;1.30;;;;;;;10.13;nan;59674.53;4992831;28;20246;-72
2023/10/30 03:49:17;;;;;;;1.33;1.23;;;;;;;10.36;nan;59802.06;4993042;28;20176;-74
2023/10/30 03:51:43;;;;;;;1.30;1.20;;;;;;;10.27;nan;59896.72;4992856;28;20675;-74
2023/10/30 03:54:09;;;;;;;1.08;1.08;;;;;;;10.23;nan;59920.34;4992347;28;20231;-73
2023/10/30 03:56:34;;;;;;;1.52;1.42;;;;;;;10.10;nan;60013.59;4992068;28;20180;-72
2023/10/30 03:59:00;;;;;;;1.25;1.17;;;;;;;10.38;nan;59888.50;4992807;28;20196;-71
2023/10/30 04:01:25;;;;;;;1.00;1.00;;;;;;;10.24;nan;60160.78;4992982;28;20173;-72
2023/10/30 04:03:51;;;;;;;1.00;1.00;;;;;;;10.27;nan;60085.00;4992509;28;20165;-73
2023/10/30 04:06:17;;;;;;;1.52;1.17;;;;;;;10.46;nan;60032.69;4992494;28;20207;-72
2023/10/30 04:08:42;;;;;;;1.52;1.38;;;;;;;10.50;nan;59968.19;4992926;28;20172;-71
2023/10/30 04:11:13;;;;;;;0.90;0.90;;;;;;;10.40;nan;59959.09;4992515;28;20212;-70
2023/10/30 04:13:38;;;;;;;2.03;1.38;;;;;;;10.39;nan;60095.81;4992587;28;20639;-72
2023/10/30 04:16:04;;;;;;;1.88;1.60;;;;;;;10.18;nan;59884.19;5007455;28;20184;-72
2023/10/30 04:18:31;;;;;;;1.30;1.20;;;;;;;10.33;nan;59859.44;4992497;28;20169;-72
2023/10/30 04:20:56;;;;;;;1.05;1.05;;;;;;;10.25;nan;59782.25;4992868;28;20228;-73
2023/10/30 04:23:22;;;;;;;1.35;1.25;;;;;;;10.02;nan;59636.84;5006890;28;20192;-72
2023/10/30 04:25:47;;;;;;;1.10;1.10;;;;;;;9.98;nan;59686.56;4992324;28;20188;-71
2023/10/30 04:28:12;;;;;;;1.05;1.05;;;;;;;9.95;nan;59520.00;4992487;28;20169;-72
2023/10/30 04:30:38;;;;;;;1.45;1.35;;;;;;;9.91;nan;59446.75;4992419;28;20228;-72
2023/10/30 04:33:03;;;;;;;1.40;1.27;;;;;;;10.05;nan;59354.50;4992181;28;20211;-73
2023/10/30 04:35:29;;;;;;;1.50;1.40;;;;;;;10.03;nan;59380.94;4990780;28;20648;-72
2023/10/30 04:37:55;;;;;;;1.60;1.50;;;;;;;9.77;nan;59253.41;4991597;28;20181;-72
2023/10/30 04:40:20;;;;;;;1.48;1.38;;;;;;;9.98;nan;59160.66;4994991;28;20176;-71
2023/10/30 04:42:46;;;;;;;1.90;1.75;;;;;;;9.80;nan;59166.41;4994158;28;20183;-73
2023/10/30 04:45:11;;;;;;;1.45;1.35;;;;;;;9.90;nan;58873.97;4995113;28;20161;-72
2023/10/30 04:47:37;;;;;;;1.80;1.70;;;;;;;9.68;nan;58789.84;4995012;28;20165;-74
2023/10/30 04:50:02;;;;;;;1.48;1.38;;;;;;;9.83;nan;58341.78;4995284;28;20173;-73
2023/10/30 04:52:29;;;;;;;1.23;1.23;;;;;;;9.71;nan;58152.97;4993737;28;20302;-72
2023/10/30 04:54:54;;;;;;;1.25;1.17;;;;;;;9.81;nan;58296.28;4994403;28;20189;-72
2023/10/30 04:57:20;;;;;;;1.20;1.17;;;;;;;9.81;nan;58038.34;4993793;28;20267;-72
2023/10/30 04:59:45;;;;;;;1.30;1.20;;;;;;;9.55;nan;58011.38;4993625;28;20192;-73
2023/10/30 05:02:11;;;;;;;1.52;1.42;;;;;;;9.64;nan;58072.03;5009222;28;20622;-72
2023/10/30 05:04:36;;;;;;;1.23;1.13;;;;;;;9.69;nan;58001.00;4993429;28;20180;-71
2023/10/30 05:07:02;;;;;;;1.25;1.23;;;;;;;9.51;nan;57965.78;4993968;28;20200;-73
2023/10/30 05:09:27;;;;;;;1.23;1.20;;;;;;;9.53;nan;57978.09;4993186;28;20542;-73
2023/10/30 05:11:54;;;;;;;0.90;0.90;;;;;;;9.72;nan;58009.31;4995094;28;20703;-71
2023/10/30 05:14:20;;;;;;;1.15;1.15;;;;;;;9.75;nan;58015.13;4994562;28;20184;-72
2023/10/30 05:16:45;;;;;;;2.20;1.10;;;;;;;9.75;nan;58114.50;4995605;28;20255;-71
2023/10/30 05:19:11;;;;;;;1.60;1.50;;;;;;;9.75;nan;58076.28;4993992;28;20228;-73
2023/10/30 05:21:36;;;;;;;1.40;1.30;;;;;;;9.73;nan;58165.31;4993026;28;20193;-74
2023/10/30 05:24:02;;;;;;;1.40;1.30;;;;;;;9.76;nan;58150.69;4993596;28;20714;-73
2023/10/30 05:26:28;;;;;;;1.48;1.38;;;;;;;9.63;nan;58317.56;4993790;28;20189;-75
2023/10/30 05:28:53;;;;;;;1.20;1.20;;;;;;;9.91;nan;58492.66;4994855;28;20667;-76
2023/10/30 05:31:19;;;;;;;2.33;1.52;;;;;;;9.94;nan;58572.94;4992229;28;20298;-73
2023/10/30 05:33:44;;;;;;;1.00;1.00;;;;;;;9.86;nan;58663.09;4994065;28;20188;-74
2023/10/30 05:36:10;;;;;;;1.10;1.10;;;;;;;10.15;nan;58799.84;4994748;28;20172;-72
2023/10/30 05:38:36;;;;;;;1.20;1.10;;;;;;;10.25;nan;58937.22;4993888;28;20169;-74
2023/10/30 05:41:02;;;;;;;1.10;1.10;;;;;;;10.22;nan;59092.63;4995026;28;20188;-73
2023/10/30 05:43:28;;;;;;;0.98;0.98;;;;;;;10.16;nan;59295.22;5010802;28;20169;-72
2023/10/30 05:45:54;;;;;;;1.30;1.20;;;;;;;10.39;nan;59672.69;5004419;28;20234;-73
2023/10/30 05:48:19;;;;;;;1.52;1.17;;;;;;;10.55;nan;59911.91;5013691;28;20172;-73
2023/10/30 05:50:45;;;;;;;1.42;1.33;;;;;;;10.50;nan;60097.84;5011389;28;20608;-73
2023/10/30 05:53:10;;;;;;;1.40;1.30;;;;;;;10.74;nan;60241.47;5013833;28;20180;-75
2023/10/30 05:55:36;;;;;;;1.40;1.30;;;;;;;10.91;nan;60283.44;5013549;28;20271;-71
2023/10/30 05:58:01;;;;;;;1.75;1.55;;;;;;;10.99;nan;60376.69;5004059;28;20267;-74
2023/10/30 06:00:27;;;;;;;1.50;1.40;;;;;;;11.01;nan;60486.22;4993652;28;20177;-72
2023/10/30 06:02:53;;;;;;;1.80;1.70;;;;;;;11.29;nan;60494.56;4993217;28;20176;-74
2023/10/30 06:05:18;;;;;;;1.60;1.50;;;;;;;11.36;nan;60609.78;4993975;28;20184;-72
2023/10/30 06:07:44;;;;;;;1.33;1.23;;;;;;;11.36;nan;60647.59;4993613;28;20180;-73
2023/10/30 06:10:11;;;;;;;1.33;1.27;;;;;;;11.32;nan;60671.78;4993832;28;20173;-74
2023/10/30 06:12:39;;;;;;;1.30;1.20;;;;;;;11.49;nan;60616.69;4993775;28;20204;-75
2023/10/30 06:15:10;;;;;;;1.55;1.45;;;;;;;11.74;nan;60616.06;5008757;28;20172;-74
2023/10/30 06:17:35;;;;;;;1.63;1.52;;;;;;;11.60;nan;60748.13;4992440;28;20259;-75
2023/10/30 06:20:01;;;;;;;1.60;1.50;;;;;;;11.81;nan;60800.44;4993623;28;20319;-75
2023/10/30 06:22:27;;;;;;;1.33;1.23;;;;;;;11.85;nan;60686.66;4993346;28;20196;-74
2023/10/30 06:24:53;;;;;;;1.63;1.52;;;;;;;11.71;nan;60768.16;4993484;28;20173;-73
2023/10/30 06:27:18;;;;;;;1.35;1.33;;;;;;;11.92;nan;60748.84;4993629;28;20176;-73
2023/10/30 06:29:44;;;;;;;1.40;1.30;;;;;;;12.28;nan;60882.91;4993261;28;20176;-73
2023/10/30 06:32:09;;;;;;;1.77;1.63;;;;;;;12.21;nan;60691.22;4993281;28;20191;-73
2023/10/30 06:34:37;;;;;;;1.52;1.42;;;;;;;12.41;nan;60887.28;4992896;28;20704;-73
2023/10/30 06:37:03;;;;;;;2.42;1.77;;;;;;;12.37;nan;60782.91;4993140;28;20633;-73
2023/10/30 06:39:29;;;;;;;1.42;1.30;;;;;;;12.49;nan;60908.53;4993597;28;20187;-71
2023/10/30 06:41:56;;;;;;;2.15;1.63;;;;;;;12.18;nan;60733.94;4993157;28;20256;-74
2023/10/30 06:44:22;;;;;;;1.58;1.48;;;;;;;12.72;nan;60936.97;4993103;28;20161;-73
2023/10/30 06:46:50;;;;;;;0.98;0.98;;;;;;;12.96;nan;60846.09;4992548;28;20611;-72
2023/10/30 06:49:18;;;;;;;2.38;1.67;;;;;;;13.20;nan;60882.78;4992697;28;20248;-73
2023/10/30 06:51:44;;;;;;;1.58;1.48;;;;;;;13.12;nan;60997.44;4992876;28;20219;-74
2023/10/30 06:54:13;;;;;;;1.52;1.42;;;;;;;13.53;nan;60955.28;4992593;28;20272;-71
2023/10/30 06:56:39;;;;;;;1.15;1.13;;;;;;;13.55;nan;61042.19;4992773;28;20181;-72
2023/10/30 06:59:05;;;;;;;1.27;1.23;;;;;;;13.73;nan;61028.56;4992802;28;20177;-73
2023/10/30 07:01:43;;;;;;;6.93;2.95;;;;;;;13.86;nan;61084.31;4992761;28;20279;-73
2023/10/30 07:04:13;;;;;;;2.20;1.30;;;;;;;13.94;nan;60980.91;4992984;28;20187;-75
2023/10/30 07:06:41;;;;;;;1.75;1.65;;;;;;;14.29;nan;60972.94;4992787;28;20161;-72
2023/10/30 07:09:07;;;;;;;2.53;2.03;;;;;;;14.46;nan;61169.44;4993016;28;20177;-73
2023/10/30 07:11:36;;;;;;;1.05;1.00;;;;;;;14.67;nan;61179.72;4993188;28;20195;-74
2023/10/30 07:14:02;;;;;;;1.38;1.27;;;;;;;14.81;nan;61085.50;4992294;28;20588;-73
2023/10/30 07:16:31;;;;;;;1.30;1.20;;;;;;;14.86;nan;61206.88;4991873;28;20169;-74
2023/10/30 07:18:58;;;;;;;1.35;1.25;;;;;;;15.05;nan;61263.78;4992265;28;20169;-74
2023/10/30 07:21:25;;;;;;;2.20;1.92;;;;;;;15.40;nan;61287.91;5007061;28;20191;-74
2023/10/30 07:23:50;;;;;;;1.27;1.17;;;;;;;15.52;nan;61295.78;4991344;28;20184;-64
2023/10/30 07:26:17;;;;;;;1.60;1.10;;;;;;;15.97;nan;61314.59;4990150;28;20184;-64
2023/10/30 07:28:43;;;;;;;1.30;1.20;;;;;;;16.05;nan;61344.81;4989730;28;20675;-65
2023/10/30 07:31:08;;;;;;;0.93;0.93;;;;;;;16.47;nan;61358.25;4990707;28;20267;-64
2023/10/30 07:33:34;;;;;;;1.35;1.25;;;;;;;16.45;nan;61399.84;4991413;28;20607;-64
2023/10/30 07:36:02;;;;;;;1.58;1.17;;;;;;;16.75;nan;61402.84;4991708;28;20168;-64
2023/10/30 07:38:28;;;;;;;1.55;1.45;;;;;;;16.69;nan;61396.03;4991935;28;20165;-64
2023/10/30 07:40:54;;;;;;;1.00;0.98;;;;;;;16.93;nan;61473.69;4992671;28;20254;-64
2023/10/30 07:43:21;;;;;;;0.90;0.90;;;;;;;17.24;nan;61439.09;5007692;28;20192;-64
2023/10/30 07:45:50;;;;;;;0.88;0.85;;;;;;;17.44;nan;61510.22;4992601;28;20172;-64
2023/10/30 07:48:16;;;;;;;1.27;0.90;;;;;;;17.47;nan;61488.38;4992667;28;20173;-64
2023/10/30 07:50:43;;;;;;;1.48;1.02;;;;;;;17.55;nan;61523.28;4992200;28;20192;-64
2023/10/30 07:53:08;;;;;;;0.70;0.70;;;;;;;17.58;nan;61541.59;4992781;28;20244;-64
2023/10/30 07:55:34;;;;;;;0.90;0.90;;;;;;;17.86;nan;61534.00;4992394;28;20173;-64
2023/10/30 07:58:00;;;;;;;0.77;0.77;;;;;;;17.84;nan;61567.94;4992578;28;20255;-64
2023/10/30 08:00:25;;;;;;;1.13;0.98;;;;;;;18.07;nan;61552.66;4992582;28;20259;-64
2023/10/30 08:02:51;;;;;;;0.85;0.85;;;;;;;18.23;nan;61567.63;4992971;28;20227;-64
2023/10/30 08:05:16;;;;;;;1.25;1.23;;;;;;;18.05;nan;61522.50;4992790;28;20439;-64
2023/10/30 08:07:44;;;;;;;1.40;1.30;;;;;;;18.13;nan;61633.88;4992171;28;20554;-64
2023/10/30 08:10:11;;;;;;;0.90;0.90;;;;;;;18.12;nan;61584.19;4992424;28;20177;-64
2023/10/30 08:12:37;;;;;;;1.50;1.40;;;;;;;18.19;nan;61610.19;4990877;28;20264;-64
2023/10/30 08:15:03;;;;;;;0.93;0.93;;;;;;;18.41;nan;61733.47;4995204;28;20600;-64
2023/10/30 08:17:29;;;;;;;0.90;0.90;;;;;;;18.23;nan;61593.47;4996531;28;20185;-64
2023/10/30 08:19:54;;;;;;;1.20;1.15;;;;;;;18.77;nan;61683.22;4996619;28;20239;-64
2023/10/30 08:22:19;;;;;;;0.93;0.90;;;;;;;18.89;nan;61663.19;4996385;28;20183;-64
2023/10/30 08:24:45;;;;;;;1.70;1.60;;;;;;;18.87;nan;61671.25;4996347;28;20194;-64
2023/10/30 08:27:10;;;;;;;1.00;0.85;;;;;;;18.97;nan;61798.56;4996438;28;20507;-65
2023/10/30 08:29:36;;;;;;;1.25;0.93;;;;;;;19.26;nan;61885.94;4995826;28;20169;-64
2023/10/30 08:32:01;;;;;;;0.82;0.82;;;;;;;19.38;nan;61687.13;4996008;28;20559;-64
2023/10/30 08:34:26;;;;;;;1.17;1.13;;;;;;;19.17;nan;61722.88;4996295;28;20169;-64
2023/10/30 08:36:52;;;;;;;1.15;1.10;;;;;;;19.37;nan;61853.84;4995879;28;20624;-64
2023/10/30 08:39:17;;;;;;;1.20;1.00;;;;;;;19.56;nan;61888.44;4995044;28;20282;-64
2023/10/30 08:41:43;;;;;;;1.05;1.00;;;;;;;19.70;nan;61764.38;4995564;28;20183;-64
2023/10/30 08:44:08;;;;;;;1.52;0.90;;;;;;;19.61;nan;61662.84;4995688;28;20188;-64
2023/10/30 08:46:34;;;;;;;0.90;0.90;;;;;;;20.00;nan;61777.13;4995835;28;20533;-64
2023/10/30 08:49:00;;;;;;;0.98;0.93;;;;;;;20.01;nan;61764.72;4996264;28;20183;-64
2023/10/30 08:51:25;;;;;;;1.10;1.00;;;;;;;20.11;nan;61818.19;4995852;28;20594;-64
2023/10/30 08:53:51;;;;;;;0.93;0.90;;;;;;;20.09;nan;61284.13;4994947;28;20208;-64
2023/10/30 08:56:17;;;;;;;0.80;0.80;;;;;;;20.07;nan;61776.75;4996261;28;20184;-65
2023/10/30 08:58:43;;;;;;;1.00;0.95;;;;;;;20.26;nan;61806.09;4995570;28;20267;-64
2023/10/30 09:01:08;;;;;;;3.92;1.55;;;;;;;20.27;nan;61843.56;4995533;28;20177;-64
2023/10/30 09:03:34;;;;;;;0.85;0.85;;;;;;;20.24;nan;61856.28;4995259;28;20184;-64
2023/10/30 09:05:59;;;;;;;1.05;0.95;;;;;;;20.33;nan;61888.75;4995278;28;20235;-64
2023/10/30 09:08:25;;;;;;;0.73;0.73;;;;;;;20.42;nan;61858.03;4996046;28;20204;-64
2023/10/30 09:10:51;;;;;;;1.00;1.00;;;;;;;20.52;nan;61855.88;4995040;28;20193;-65
2023/10/30 09:13:16;;;;;;;0.75;0.75;;;;;;;20.66;nan;61861.41;4995169;28;20181;-64
2023/10/30 09:15:42;;;;;;;1.17;1.08;;;;;;;20.67;nan;61867.72;4995149;28;20235;-64
2023/10/30 09:18:07;;;;;;;1.38;1.27;;;;;;;20.80;nan;62058.53;4995308;28;20185;-65
2023/10/30 09:20:33;;;;;;;1.38;1.00;;;;;;;20.88;nan;61886.41;4995225;28;20221;-65
2023/10/30 09:22:59;;;;;;;1.48;1.38;;;;;;;20.97;nan;61916.84;4995011;28;20268;-64
2023/10/30 09:25:24;;;;;;;0.68;0.68;;;;;;;20.89;nan;61900.53;4993826;28;20169;-64
2023/10/30 09:27:50;;;;;;;0.98;0.98;;;;;;;21.23;nan;61886.09;4995242;28;20172;-64
2023/10/30 09:30:18;;;;;;;1.20;1.10;;;;;;;21.31;nan;62090.72;4995355;28;20644;-64
2023/10/30 09:32:44;;;;;;;1.05;1.02;;;;;;;21.34;nan;61964.16;4995558;28;20210;-63
2023/10/30 09:35:10;;;;;;;1.15;1.05;;;;;;;21.46;nan;61899.25;4995160;28;20550;-64
2023/10/30 09:37:37;;;;;;;0.80;0.80;;;;;;;21.44;nan;61988.53;4994904;28;20720;-64
2023/10/30 09:40:04;;;;;;;1.77;1.10;;;;;;;21.33;nan;61931.25;4995118;28;20204;-64
2023/10/30 09:42:32;;;;;;;0.95;0.93;;;;;;;21.67;nan;62005.78;5009534;28;20181;-64
2023/10/30 09:44:59;;;;;;;0.80;0.77;;;;;;;21.76;nan;62016.59;4994717;28;20173;-64
2023/10/30 09:47:27;;;;;;;0.80;0.80;;;;;;;21.76;nan;61961.97;4994775;28;20177;-64
2023/10/30 09:49:53;;;;;;;1.60;1.50;;;;;;;22.01;nan;62021.66;4994446;28;20228;-64
2023/10/30 09:52:21;;;;;;;0.68;0.68;;;;;;;22.15;nan;62067.72;4994700;28;20216;-64
2023/10/30 09:54:48;;;;;;;0.60;0.60;;;;;;;22.24;nan;62034.25;4994627;28;20473;-64
2023/10/30 09:57:14;;;;;;;1.45;1.15;;;;;;;22.38;nan;62086.66;4994270;28;20176;-64
2023/10/30 09:59:43;;;;;;;1.15;0.90;;;;;;;22.39;nan;62045.56;4994353;28;20169;-64
2023/10/30 10:02:09;;;;;;;1.30;1.15;;;;;;;22.30;nan;62035.91;4994387;28;20172;-64
2023/10/30 10:04:37;;;;;;;1.08;0.98;;;;;;;22.44;nan;62111.72;4994293;28;20177;-64
2023/10/30 10:07:04;;;;;;;1.73;1.63;;;;;;;22.51;nan;62074.88;4994459;28;20202;-64
2023/10/30 10:09:29;;;;;;;0.82;0.82;;;;;;;22.73;nan;62122.84;4994407;28;20184;-64
2023/10/30 10:11:54;;;;;;;1.08;0.93;;;;;;;22.58;nan;62121.91;4994008;28;20197;-64
2023/10/30 10:14:20;;;;;;;0.85;0.85;;;;;;;22.60;nan;62072.09;4993956;28;20171;-64
2023/10/30 10:16:45;;;;;;;0.75;0.75;;;;;;;22.53;nan;62113.59;4994583;28;20243;-64
2023/10/30 10:19:21;;;;;;;1.23;1.13;;;;;;;22.31;nan;62034.44;4994011;28;20216;-64
2023/10/30 10:21:51;;;;;;;1.00;0.90;;;;;;;22.31;nan;62002.63;4994262;28;20179;-64
2023/10/30 10:24:30;;;;;;;1.40;1.20;;;;;;;22.56;nan;62074.78;4993119;28;20580;-64
2023/10/30 10:27:03;;;;;;;0.80;0.80;;;;;;;22.51;nan;62063.88;4993700;28;20169;-64
2023/10/30 10:29:30;;;;;;;1.20;1.10;;;;;;;22.56;nan;62109.22;4993539;28;20290;-64
2023/10/30 10:31:56;;;;;;;1.05;1.00;;;;;;;22.67;nan;62113.94;4993380;28;20196;-64
2023/10/30 10:34:23;;;;;;;1.10;1.00;;;;;;;22.82;nan;62096.63;4993207;28;20644;-64
2023/10/30 10:36:48;;;;;;;1.10;1.00;;;;;;;22.87;nan;62110.13;4993095;28;20165;-64
2023/10/30 10:39:14;;;;;;;0.90;0.90;;;;;;;22.94;nan;62114.91;4993293;28;20280;-64
2023/10/30 10:41:42;;;;;;;1.55;1.10;;;;;;;22.89;nan;62120.22;5008259;28;20177;-64
2023/10/30 10:44:08;;;;;;;1.52;1.10;;;;;;;22.97;nan;62126.75;4993294;28;20195;-64
2023/10/30 10:46:34;;;;;;;1.13;1.05;;;;;;;23.29;nan;62183.50;4993447;28;20176;-64
2023/10/30 10:49:01;;;;;;;1.50;1.40;;;;;;;23.41;nan;62186.19;4992805;28;20188;-64
2023/10/30 10:51:34;;;;;;;0.80;0.80;;;;;;;23.15;nan;62152.47;4993096;28;20201;-63
2023/10/30 10:54:05;;;;;;;3.28;1.20;;;;;;;23.32;nan;62145.19;4993019;28;20632;-64
2023/10/30 10:56:36;;;;;;;1.58;1.08;;;;;;;23.36;nan;62230.59;4992988;28;20169;-63
2023/10/30 10:59:04;;;;;;;0.93;0.80;;;;;;;23.42;nan;62206.16;4993129;28;20169;-64
2023/10/30 11:01:36;;;;;;;1.00;0.90;;;;;;;23.40;nan;62323.28;4991461;28;20188;-64
2023/10/30 11:04:02;;;;;;;0.85;0.85;;;;;;;23.44;nan;62221.50;4992921;28;20703;-63
2023/10/30 11:06:34;;;;;;;1.02;0.93;;;;;;;23.48;nan;62231.28;4992874;28;20179;-64
2023/10/30 11:09:12;;;;;;;1.40;1.20;;;;;;;23.48;nan;62194.19;4992999;28;20260;-64
2023/10/30 11:11:52;;;;;;;1.13;1.02;;;;;;;23.24;nan;62206.47;4992326;28;20560;-64
2023/10/30 11:14:35;;;;;;;1.00;1.00;;;;;;;23.19;nan;62206.56;4992683;28;20169;-64
2023/10/30 11:17:02;;;;;;;1.20;1.10;;;;;;;23.17;nan;62193.28;4992671;28;20629;-63
2023/10/30 11:19:29;;;;;;;0.80;0.80;;;;;;;23.50;nan;62212.13;4992330;28;20223;-63
2023/10/30 11:21:55;;;;;;;1.83;1.60;;;;;;;23.54;nan;62209.41;4992618;28;20541;-63
2023/10/30 11:24:38;;;;;;;0.85;0.85;;;;;;;23.38;nan;62305.91;4992652;28;20181;-64
2023/10/30 11:27:25;;;;;;;1.00;1.00;;;;;;;23.32;nan;62158.81;4992516;28;20188;-64
2023/10/30 11:30:10;;;;;;;1.10;1.00;;;;;;;23.23;nan;62164.19;4992397;28;20180;-64
2023/10/30 11:32:44;;;;;;;19.90;1.73;;;;;;;23.14;nan;62120.03;4992132;28;20231;-64
2023/10/30 11:35:09;;;;;;;1.55;1.17;;;;;;;23.06;nan;62178.13;4992298;28;20254;-63
2023/10/30 11:37:35;;;;;;;1.35;1.25;;;;;;;23.02;nan;62244.53;4992636;28;20256;-63
2023/10/30 11:40:06;;;;;;;7.28;1.60;;;;;;;23.12;nan;62179.78;4992376;28;20180;-64
2023/10/30 11:42:39;;;;;;;1.35;1.10;;;;;;;23.02;nan;62150.13;4992908;28;20176;-63
2023/10/30 11:45:29;;;;;;;1.63;1.38;;;;;;;22.99;nan;62136.25;4992325;28;20192;-64
2023/10/30 11:47:57;;;;;;;1.40;1.30;;;;;;;22.86;nan;62104.34;4991788;28;20172;-64